sensor_id;sensor_type;location;lat;lon;timestamp;temperature;humidity
14934;DHT22;7560;51.364;12.384;2022-12-07T00:00:44;4.20;99.90
14934;DHT22;7560;51.364;12.384;2022-12-07T00:05:45;4.30;99.90
14934;DHT22;7560;51.364;12.384;2022-12-07T00:10:47;4.30;99.90
14934;DHT22;7560;51.364;12.384;2022-12-07T00:15:49;4.20;99.90
14934;DHT22;7560;51.364;12.384;2022-12-07T00:20:50;4.10;99.90
14934;DHT22;7560;51.364;12.384;2022-12-07T00:25:52;3.80;99.90
14934;DHT22;7560;51.364;12.384;2022-12-07T00:31:00;3.80;99.90
14934;DHT22;7560;51.364;12.384;2022-12-07T00:36:09;3.70;99.90
14934;DHT22;7560;51.364;12.384;2022-12-07T00:41:13;3.70;99.90
14934;DHT22;7560;51.364;12.384;2022-12-07T00:46:16;3.60;99.90
14934;DHT22;7560;51.364;12.384;2022-12-07T00:51:19;3.40;99.90
14934;DHT22;7560;51.364;12.384;2022-12-07T00:56:24;3.10;99.90
14934;DHT22;7560;51.364;12.384;2022-12-07T01:01:29;3.00;99.90
14934;DHT22;7560;51.364;12.384;2022-12-07T01:06:31;2.90;99.90
14934;DHT22;7560;51.364;12.384;2022-12-07T01:11:33;2.80;99.90
14934;DHT22;7560;51.364;12.384;2022-12-07T01:16:34;2.80;99.90
14934;DHT22;7560;51.364;12.384;2022-12-07T01:21:38;2.80;99.90
14934;DHT22;7560;51.364;12.384;2022-12-07T01:26:39;2.70;99.90
14934;DHT22;7560;51.364;12.384;2022-12-07T01:31:41;2.60;99.90
14934;DHT22;7560;51.364;12.384;2022-12-07T01:36:43;2.60;99.90
14934;DHT22;7560;51.364;12.384;2022-12-07T01:41:45;2.50;99.90
14934;DHT22;7560;51.364;12.384;2022-12-07T01:52:18;2.40;99.90
14934;DHT22;7560;51.364;12.384;2022-12-07T01:57:18;2.40;99.90
14934;DHT22;7560;51.364;12.384;2022-12-07T02:02:30;2.30;99.90
14934;DHT22;7560;51.364;12.384;2022-12-07T02:07:36;2.20;99.90
14934;DHT22;7560;51.364;12.384;2022-12-07T02:12:39;2.20;99.90
14934;DHT22;7560;51.364;12.384;2022-12-07T02:23:12;2.10;99.90
14934;DHT22;7560;51.364;12.384;2022-12-07T02:28:34;2.10;99.90
14934;DHT22;7560;51.364;12.384;2022-12-07T02:33:46;2.20;99.90
14934;DHT22;7560;51.364;12.384;2022-12-07T02:38:55;2.30;99.90
14934;DHT22;7560;51.364;12.384;2022-12-07T02:44:10;2.30;99.90
14934;DHT22;7560;51.364;12.384;2022-12-07T02:49:14;2.20;99.90
14934;DHT22;7560;51.364;12.384;2022-12-07T02:54:18;2.20;99.90
14934;DHT22;7560;51.364;12.384;2022-12-07T03:21:11;2.20;99.90
14934;DHT22;7560;51.364;12.384;2022-12-07T03:26:15;2.30;99.90
14934;DHT22;7560;51.364;12.384;2022-12-07T03:31:24;2.50;99.90
14934;DHT22;7560;51.364;12.384;2022-12-07T03:36:54;2.60;99.90
14934;DHT22;7560;51.364;12.384;2022-12-07T03:41:59;2.60;99.90
14934;DHT22;7560;51.364;12.384;2022-12-07T03:52:55;2.80;99.90
14934;DHT22;7560;51.364;12.384;2022-12-07T03:58:10;2.80;99.90
14934;DHT22;7560;51.364;12.384;2022-12-07T04:03:12;2.90;99.90
14934;DHT22;7560;51.364;12.384;2022-12-07T04:08:14;3.00;99.90
14934;DHT22;7560;51.364;12.384;2022-12-07T04:13:16;3.10;99.90
14934;DHT22;7560;51.364;12.384;2022-12-07T04:18:18;3.10;99.90
14934;DHT22;7560;51.364;12.384;2022-12-07T04:23:19;3.20;99.90
14934;DHT22;7560;51.364;12.384;2022-12-07T04:28:21;3.20;99.90
14934;DHT22;7560;51.364;12.384;2022-12-07T04:33:23;3.20;99.90
14934;DHT22;7560;51.364;12.384;2022-12-07T04:38:24;3.30;99.90
14934;DHT22;7560;51.364;12.384;2022-12-07T04:43:26;3.30;99.90
14934;DHT22;7560;51.364;12.384;2022-12-07T04:48:28;3.30;99.90
14934;DHT22;7560;51.364;12.384;2022-12-07T04:53:30;3.40;99.90
14934;DHT22;7560;51.364;12.384;2022-12-07T04:58:31;3.40;99.90
14934;DHT22;7560;51.364;12.384;2022-12-07T05:03:33;3.40;99.90
14934;DHT22;7560;51.364;12.384;2022-12-07T05:08:35;3.50;99.90
14934;DHT22;7560;51.364;12.384;2022-12-07T05:13:37;3.50;99.90
14934;DHT22;7560;51.364;12.384;2022-12-07T05:18:38;3.50;99.90
14934;DHT22;7560;51.364;12.384;2022-12-07T05:23:40;3.60;99.90
14934;DHT22;7560;51.364;12.384;2022-12-07T05:28:42;3.60;99.90
14934;DHT22;7560;51.364;12.384;2022-12-07T05:33:44;3.60;99.90
14934;DHT22;7560;51.364;12.384;2022-12-07T05:38:46;3.60;99.90
14934;DHT22;7560;51.364;12.384;2022-12-07T05:43:48;3.60;99.90
14934;DHT22;7560;51.364;12.384;2022-12-07T05:48:49;3.70;99.90
14934;DHT22;7560;51.364;12.384;2022-12-07T05:53:51;3.70;99.90
14934;DHT22;7560;51.364;12.384;2022-12-07T05:58:54;3.70;99.90
14934;DHT22;7560;51.364;12.384;2022-12-07T06:04:14;3.70;99.90
14934;DHT22;7560;51.364;12.384;2022-12-07T06:09:16;3.70;99.90
14934;DHT22;7560;51.364;12.384;2022-12-07T06:14:17;3.80;99.90
14934;DHT22;7560;51.364;12.384;2022-12-07T06:19:19;3.70;99.90
14934;DHT22;7560;51.364;12.384;2022-12-07T06:24:22;3.70;99.90
14934;DHT22;7560;51.364;12.384;2022-12-07T06:29:24;3.80;99.90
14934;DHT22;7560;51.364;12.384;2022-12-07T06:34:26;3.70;99.90
14934;DHT22;7560;51.364;12.384;2022-12-07T06:39:29;3.70;99.90
14934;DHT22;7560;51.364;12.384;2022-12-07T06:44:31;3.40;99.90
14934;DHT22;7560;51.364;12.384;2022-12-07T06:49:34;3.30;99.90
14934;DHT22;7560;51.364;12.384;2022-12-07T06:54:35;3.50;99.90
14934;DHT22;7560;51.364;12.384;2022-12-07T06:59:37;3.70;99.90
14934;DHT22;7560;51.364;12.384;2022-12-07T07:04:39;3.80;99.90
14934;DHT22;7560;51.364;12.384;2022-12-07T07:09:41;3.90;99.90
14934;DHT22;7560;51.364;12.384;2022-12-07T07:14:43;3.90;99.90
14934;DHT22;7560;51.364;12.384;2022-12-07T07:19:44;4.00;99.90
14934;DHT22;7560;51.364;12.384;2022-12-07T07:24:46;4.00;99.90
14934;DHT22;7560;51.364;12.384;2022-12-07T07:29:48;4.00;99.90
14934;DHT22;7560;51.364;12.384;2022-12-07T07:34:50;4.00;99.90
14934;DHT22;7560;51.364;12.384;2022-12-07T07:39:52;3.90;99.90
14934;DHT22;7560;51.364;12.384;2022-12-07T07:44:54;4.10;99.90
14934;DHT22;7560;51.364;12.384;2022-12-07T07:49:56;4.00;99.90
14934;DHT22;7560;51.364;12.384;2022-12-07T07:54:58;3.90;99.90
14934;DHT22;7560;51.364;12.384;2022-12-07T08:00:00;3.90;99.90
14934;DHT22;7560;51.364;12.384;2022-12-07T08:05:03;3.80;99.90
14934;DHT22;7560;51.364;12.384;2022-12-07T08:10:06;3.80;99.90
14934;DHT22;7560;51.364;12.384;2022-12-07T08:15:08;3.70;99.90
14934;DHT22;7560;51.364;12.384;2022-12-07T08:20:10;3.70;99.90
14934;DHT22;7560;51.364;12.384;2022-12-07T08:25:11;3.70;99.90
14934;DHT22;7560;51.364;12.384;2022-12-07T08:30:13;3.80;99.90
14934;DHT22;7560;51.364;12.384;2022-12-07T08:35:15;4.10;99.90
14934;DHT22;7560;51.364;12.384;2022-12-07T08:40:17;4.40;99.90
14934;DHT22;7560;51.364;12.384;2022-12-07T08:45:21;4.60;99.90
14934;DHT22;7560;51.364;12.384;2022-12-07T08:50:28;4.70;99.90
14934;DHT22;7560;51.364;12.384;2022-12-07T08:55:31;4.70;99.90
14934;DHT22;7560;51.364;12.384;2022-12-07T09:00:34;4.80;99.90
14934;DHT22;7560;51.364;12.384;2022-12-07T09:05:36;4.80;99.90
14934;DHT22;7560;51.364;12.384;2022-12-07T09:10:38;4.90;99.90
14934;DHT22;7560;51.364;12.384;2022-12-07T09:15:40;5.10;99.90
14934;DHT22;7560;51.364;12.384;2022-12-07T09:20:41;5.30;99.90
14934;DHT22;7560;51.364;12.384;2022-12-07T09:25:43;5.30;99.90
14934;DHT22;7560;51.364;12.384;2022-12-07T09:30:46;5.30;99.90
14934;DHT22;7560;51.364;12.384;2022-12-07T09:36:08;5.30;99.90
14934;DHT22;7560;51.364;12.384;2022-12-07T09:41:11;5.40;99.90
14934;DHT22;7560;51.364;12.384;2022-12-07T09:46:15;5.30;99.90
14934;DHT22;7560;51.364;12.384;2022-12-07T09:51:23;5.20;99.90
14934;DHT22;7560;51.364;12.384;2022-12-07T09:56:29;5.20;99.90
14934;DHT22;7560;51.364;12.384;2022-12-07T10:01:33;5.10;99.90
14934;DHT22;7560;51.364;12.384;2022-12-07T10:06:35;5.10;99.90
14934;DHT22;7560;51.364;12.384;2022-12-07T10:17:01;5.40;99.90
14934;DHT22;7560;51.364;12.384;2022-12-07T10:22:15;5.60;99.90
14934;DHT22;7560;51.364;12.384;2022-12-07T10:27:30;5.70;99.90
14934;DHT22;7560;51.364;12.384;2022-12-07T10:32:36;5.80;99.90
14934;DHT22;7560;51.364;12.384;2022-12-07T10:37:41;6.00;99.90
14934;DHT22;7560;51.364;12.384;2022-12-07T10:43:00;6.20;99.90
14934;DHT22;7560;51.364;12.384;2022-12-07T10:58:55;5.80;99.90
14934;DHT22;7560;51.364;12.384;2022-12-07T11:04:18;5.90;99.90
14934;DHT22;7560;51.364;12.384;2022-12-07T11:20:46;6.00;99.90
14934;DHT22;7560;51.364;12.384;2022-12-07T11:31:38;5.40;99.90
14934;DHT22;7560;51.364;12.384;2022-12-07T11:36:50;5.10;99.90
14934;DHT22;7560;51.364;12.384;2022-12-07T11:42:00;5.10;99.90
14934;DHT22;7560;51.364;12.384;2022-12-07T11:52:43;5.40;99.90
14934;DHT22;7560;51.364;12.384;2022-12-07T11:57:56;5.50;99.90
14934;DHT22;7560;51.364;12.384;2022-12-07T12:03:28;5.50;99.90
14934;DHT22;7560;51.364;12.384;2022-12-07T12:08:38;5.80;99.90
14934;DHT22;7560;51.364;12.384;2022-12-07T12:25:28;6.00;99.90
14934;DHT22;7560;51.364;12.384;2022-12-07T12:30:37;6.20;99.90
14934;DHT22;7560;51.364;12.384;2022-12-07T12:35:39;6.20;99.90
14934;DHT22;7560;51.364;12.384;2022-12-07T12:40:42;6.30;99.90
14934;DHT22;7560;51.364;12.384;2022-12-07T12:51:40;6.30;99.90
14934;DHT22;7560;51.364;12.384;2022-12-07T12:57:14;6.30;99.90
14934;DHT22;7560;51.364;12.384;2022-12-07T13:02:37;6.30;99.90
14934;DHT22;7560;51.364;12.384;2022-12-07T13:28:48;6.30;99.90
14934;DHT22;7560;51.364;12.384;2022-12-07T13:33:50;6.40;99.90
14934;DHT22;7560;51.364;12.384;2022-12-07T13:39:00;6.30;99.90
14934;DHT22;7560;51.364;12.384;2022-12-07T13:44:13;6.20;99.90
14934;DHT22;7560;51.364;12.384;2022-12-07T13:49:20;6.00;99.90
14934;DHT22;7560;51.364;12.384;2022-12-07T13:54:22;6.20;99.90
14934;DHT22;7560;51.364;12.384;2022-12-07T13:59:25;6.20;99.90
14934;DHT22;7560;51.364;12.384;2022-12-07T14:04:32;6.30;99.90
14934;DHT22;7560;51.364;12.384;2022-12-07T14:09:34;6.10;99.90
14934;DHT22;7560;51.364;12.384;2022-12-07T14:14:36;6.10;99.90
14934;DHT22;7560;51.364;12.384;2022-12-07T14:24:49;5.80;99.90
14934;DHT22;7560;51.364;12.384;2022-12-07T14:29:51;5.70;99.90
14934;DHT22;7560;51.364;12.384;2022-12-07T14:35:13;5.70;99.90
14934;DHT22;7560;51.364;12.384;2022-12-07T14:40:18;5.60;99.90
14934;DHT22;7560;51.364;12.384;2022-12-07T14:45:22;5.50;99.90
14934;DHT22;7560;51.364;12.384;2022-12-07T14:50:24;5.30;99.90
14934;DHT22;7560;51.364;12.384;2022-12-07T14:55:30;5.40;99.90
14934;DHT22;7560;51.364;12.384;2022-12-07T15:00:32;5.30;99.90
14934;DHT22;7560;51.364;12.384;2022-12-07T15:05:37;5.20;99.90
14934;DHT22;7560;51.364;12.384;2022-12-07T15:10:39;5.20;99.90
14934;DHT22;7560;51.364;12.384;2022-12-07T15:15:41;5.10;99.90
14934;DHT22;7560;51.364;12.384;2022-12-07T15:20:44;5.00;99.90
14934;DHT22;7560;51.364;12.384;2022-12-07T15:25:47;5.00;99.90
14934;DHT22;7560;51.364;12.384;2022-12-07T15:30:49;4.90;99.90
14934;DHT22;7560;51.364;12.384;2022-12-07T15:35:51;4.90;99.90
14934;DHT22;7560;51.364;12.384;2022-12-07T15:40:53;4.90;99.90
14934;DHT22;7560;51.364;12.384;2022-12-07T15:45:56;5.00;99.90
14934;DHT22;7560;51.364;12.384;2022-12-07T15:51:06;4.90;99.90
14934;DHT22;7560;51.364;12.384;2022-12-07T15:56:08;5.00;99.90
14934;DHT22;7560;51.364;12.384;2022-12-07T16:01:11;5.10;99.90
14934;DHT22;7560;51.364;12.384;2022-12-07T16:06:17;5.20;99.90
14934;DHT22;7560;51.364;12.384;2022-12-07T16:11:19;5.20;99.90
14934;DHT22;7560;51.364;12.384;2022-12-07T16:16:21;5.10;99.90
14934;DHT22;7560;51.364;12.384;2022-12-07T16:21:24;4.30;99.90
14934;DHT22;7560;51.364;12.384;2022-12-07T16:26:26;4.20;99.90
14934;DHT22;7560;51.364;12.384;2022-12-07T16:31:29;4.20;99.90
14934;DHT22;7560;51.364;12.384;2022-12-07T16:36:31;4.10;99.90
14934;DHT22;7560;51.364;12.384;2022-12-07T16:41:52;4.00;99.90
14934;DHT22;7560;51.364;12.384;2022-12-07T16:46:55;4.00;99.90
14934;DHT22;7560;51.364;12.384;2022-12-07T16:51:56;4.10;99.90
14934;DHT22;7560;51.364;12.384;2022-12-07T16:57:18;4.10;99.90
14934;DHT22;7560;51.364;12.384;2022-12-07T17:02:24;4.20;99.90
14934;DHT22;7560;51.364;12.384;2022-12-07T17:07:26;4.30;99.90
14934;DHT22;7560;51.364;12.384;2022-12-07T17:12:28;4.30;99.90
14934;DHT22;7560;51.364;12.384;2022-12-07T17:17:30;4.50;99.90
14934;DHT22;7560;51.364;12.384;2022-12-07T17:22:32;4.40;99.90
14934;DHT22;7560;51.364;12.384;2022-12-07T17:27:33;4.40;99.90
14934;DHT22;7560;51.364;12.384;2022-12-07T17:32:35;4.40;99.90
14934;DHT22;7560;51.364;12.384;2022-12-07T17:37:37;4.30;99.90
14934;DHT22;7560;51.364;12.384;2022-12-07T17:42:39;4.40;99.90
14934;DHT22;7560;51.364;12.384;2022-12-07T17:47:41;4.30;99.90
14934;DHT22;7560;51.364;12.384;2022-12-07T17:52:43;4.40;99.90
14934;DHT22;7560;51.364;12.384;2022-12-07T17:58:03;4.40;99.90
14934;DHT22;7560;51.364;12.384;2022-12-07T18:03:06;4.50;99.90
14934;DHT22;7560;51.364;12.384;2022-12-07T18:08:10;4.50;99.90
14934;DHT22;7560;51.364;12.384;2022-12-07T18:13:11;4.50;99.90
14934;DHT22;7560;51.364;12.384;2022-12-07T18:18:32;4.50;99.90
14934;DHT22;7560;51.364;12.384;2022-12-07T18:23:34;4.40;99.90
14934;DHT22;7560;51.364;12.384;2022-12-07T18:28:36;4.40;99.90
14934;DHT22;7560;51.364;12.384;2022-12-07T18:33:38;4.50;99.90
14934;DHT22;7560;51.364;12.384;2022-12-07T18:38:40;4.40;99.90
14934;DHT22;7560;51.364;12.384;2022-12-07T18:43:42;4.40;99.90
14934;DHT22;7560;51.364;12.384;2022-12-07T18:48:44;4.40;99.90
14934;DHT22;7560;51.364;12.384;2022-12-07T18:53:47;4.40;99.90
14934;DHT22;7560;51.364;12.384;2022-12-07T18:58:51;4.30;99.90
14934;DHT22;7560;51.364;12.384;2022-12-07T19:04:12;4.30;99.90
14934;DHT22;7560;51.364;12.384;2022-12-07T19:09:14;4.40;99.90
14934;DHT22;7560;51.364;12.384;2022-12-07T19:14:28;4.40;99.90
14934;DHT22;7560;51.364;12.384;2022-12-07T19:19:32;4.40;99.90
14934;DHT22;7560;51.364;12.384;2022-12-07T19:24:34;4.40;99.90
14934;DHT22;7560;51.364;12.384;2022-12-07T19:29:36;4.40;99.90
14934;DHT22;7560;51.364;12.384;2022-12-07T19:34:40;4.40;99.90
14934;DHT22;7560;51.364;12.384;2022-12-07T19:39:42;4.30;99.90
14934;DHT22;7560;51.364;12.384;2022-12-07T19:44:44;4.30;99.90
14934;DHT22;7560;51.364;12.384;2022-12-07T19:49:46;4.30;99.90
14934;DHT22;7560;51.364;12.384;2022-12-07T19:54:48;4.40;99.90
14934;DHT22;7560;51.364;12.384;2022-12-07T19:59:49;4.40;99.90
14934;DHT22;7560;51.364;12.384;2022-12-07T20:04:51;4.40;99.90
14934;DHT22;7560;51.364;12.384;2022-12-07T20:09:53;4.40;99.90
14934;DHT22;7560;51.364;12.384;2022-12-07T20:14:54;4.50;99.90
14934;DHT22;7560;51.364;12.384;2022-12-07T20:19:56;4.50;99.90
14934;DHT22;7560;51.364;12.384;2022-12-07T20:24:58;4.50;99.90
14934;DHT22;7560;51.364;12.384;2022-12-07T20:29:59;4.50;99.90
14934;DHT22;7560;51.364;12.384;2022-12-07T20:35:01;4.50;99.90
14934;DHT22;7560;51.364;12.384;2022-12-07T20:40:04;4.40;99.90
14934;DHT22;7560;51.364;12.384;2022-12-07T20:45:06;4.50;99.90
14934;DHT22;7560;51.364;12.384;2022-12-07T20:50:10;4.50;99.90
14934;DHT22;7560;51.364;12.384;2022-12-07T20:55:12;4.50;99.90
14934;DHT22;7560;51.364;12.384;2022-12-07T21:00:15;4.40;99.90
14934;DHT22;7560;51.364;12.384;2022-12-07T21:05:17;4.40;99.90
14934;DHT22;7560;51.364;12.384;2022-12-07T21:10:19;4.40;99.90
14934;DHT22;7560;51.364;12.384;2022-12-07T21:15:20;4.40;99.90
14934;DHT22;7560;51.364;12.384;2022-12-07T21:20:22;4.40;99.90
14934;DHT22;7560;51.364;12.384;2022-12-07T21:25:24;4.40;99.90
14934;DHT22;7560;51.364;12.384;2022-12-07T21:30:26;4.40;99.90
14934;DHT22;7560;51.364;12.384;2022-12-07T21:35:37;4.30;99.90
14934;DHT22;7560;51.364;12.384;2022-12-07T21:40:39;4.30;99.90
14934;DHT22;7560;51.364;12.384;2022-12-07T21:45:41;4.30;99.90
14934;DHT22;7560;51.364;12.384;2022-12-07T21:50:43;4.40;99.90
14934;DHT22;7560;51.364;12.384;2022-12-07T21:55:45;4.30;99.90
14934;DHT22;7560;51.364;12.384;2022-12-07T22:00:46;4.40;99.90
14934;DHT22;7560;51.364;12.384;2022-12-07T22:05:48;4.40;99.90
14934;DHT22;7560;51.364;12.384;2022-12-07T22:10:52;4.40;99.90
14934;DHT22;7560;51.364;12.384;2022-12-07T22:15:54;4.40;99.90
14934;DHT22;7560;51.364;12.384;2022-12-07T22:20:59;4.40;99.90
14934;DHT22;7560;51.364;12.384;2022-12-07T22:26:05;4.50;99.90
14934;DHT22;7560;51.364;12.384;2022-12-07T22:31:09;4.50;99.90
14934;DHT22;7560;51.364;12.384;2022-12-07T22:36:11;4.50;99.90
14934;DHT22;7560;51.364;12.384;2022-12-07T22:41:26;4.50;99.90
14934;DHT22;7560;51.364;12.384;2022-12-07T22:46:27;4.50;99.90
14934;DHT22;7560;51.364;12.384;2022-12-07T22:51:31;4.50;99.90
14934;DHT22;7560;51.364;12.384;2022-12-07T22:56:36;4.50;99.90
14934;DHT22;7560;51.364;12.384;2022-12-07T23:01:38;4.50;99.90
14934;DHT22;7560;51.364;12.384;2022-12-07T23:06:40;4.40;99.90
14934;DHT22;7560;51.364;12.384;2022-12-07T23:11:42;4.40;99.90
14934;DHT22;7560;51.364;12.384;2022-12-07T23:17:02;4.40;99.90
14934;DHT22;7560;51.364;12.384;2022-12-07T23:22:04;4.50;99.90
14934;DHT22;7560;51.364;12.384;2022-12-07T23:27:06;4.50;99.90
14934;DHT22;7560;51.364;12.384;2022-12-07T23:32:08;4.50;99.90
14934;DHT22;7560;51.364;12.384;2022-12-07T23:37:09;4.50;99.90
14934;DHT22;7560;51.364;12.384;2022-12-07T23:42:11;4.60;99.90
14934;DHT22;7560;51.364;12.384;2022-12-07T23:47:13;4.60;99.90
14934;DHT22;7560;51.364;12.384;2022-12-07T23:52:15;4.60;99.90
14934;DHT22;7560;51.364;12.384;2022-12-07T23:57:16;4.60;99.90
